Bavaria

Go HERE for most recent data if this page is not up to date.

Jump to table bottom
Date Time Temp F RH % AVG Wind Max Wind Wind Dir 24 Snow Depth
*01/16/19 22 17.9 86 5 13 W - 278 0.1 44.6
*01/16/19 21 19.3 81 5 11 W - 272 0.1 44.7
*01/16/19 20 19.5 79 8 18 W - 279 0.2 44.7
*01/16/19 19 19.1 88 5 13 W - 276 0.1 44.5
*01/16/19 18 19.9 82 6 12 W - 272 0.2 44.6
*01/16/19 17 19.5 81 3 6 W - 249 0.0 44.7
*01/16/19 16 21.2 75 6 13 W - 279 0.0 44.2
*01/16/19 15 23.3 75 5 10 SW - 247 0.0 44.2
*01/16/19 14 23.6 69 4 8 SW - 218 -0.0 43.9
*01/16/19 13 27.2 63 4 9 SW - 225 -0.2 44.4
*01/16/19 12 22.6 71 3 7 NW - 334 -0.0 44.5
*01/16/19 11 20.7 71 3 8 W - 268 0.0 44.5
*01/16/19 10 20.3 68 3 7 W - 276 0.0 45.0
*01/16/19 09 19.6 62 3 7 W - 278 0.2 45.1
*01/16/19 08 16.1 74 3 7 NW - 312 0.0 45.0
*01/16/19 07 15.1 85 3 6 N - 2 0.0 44.9
*01/16/19 06 15.3 84 4 9 W - 291 0.1 45.1
*01/16/19 05 16.1 79 2 9 NW - 315 0.1 45.1
*01/16/19 04 15.9 77 3 9 NW - 293 0.1 45.1
*01/16/19 03 15.4 76 3 7 W - 286 0.0 45.3
*01/16/19 02 15.3 81 3 7 NW - 298 0.1 45.0
*01/16/19 01 16.0 77 6 13 SW - 234 0.1 45.1
*01/16/19 00 16.6 80 5 15 N - 339 0.1 44.8
*01/15/19 23 16.7 85 8 17 NE - 35 0.1 44.8
*01/15/19 22 17.1 88 5 14 SW - 234 0.1 44.7
*01/15/19 21 17.5 89 10 18 W - 262 0.1 44.7
*01/15/19 20 17.9 90 8 14 SW - 218 0.1 45.0
*01/15/19 19 19.5 80 11 17 W - 262 0.2 45.0
*01/15/19 18 18.3 89 7 14 W - 266 0.0 44.8
*01/15/19 17 20.0 82 8 15 W - 248 0.1 44.8
*01/15/19 16 19.6 67 2 9 SW - 217 0.0 44.6
*01/15/19 15 21.9 45 2 6 SE - 138 -0.0 44.5
*01/15/19 14 24.3 27 2 10 N - 6 -0.0 44.4
*01/15/19 13 29.1 20 2 5 W - 251 -0.1 44.6
*01/15/19 12 23.3 29 3 7 NE - 33 -0.0 44.8
*01/15/19 11 25.1 18 4 10 NE - 62 -0.0 44.5
*01/15/19 10 25.2 27 5 8 E - 106 -0.2 44.8
*01/15/19 09 25.1 31 4 8 NE - 25 0.0 45.4
*01/15/19 08 24.4 32 4 7 NE - 52 0.2 45.4
*01/15/19 07 23.5 30 5 7 NE - 56 0.0 45.3
*01/15/19 06 23.9 28 3 6 NE - 26 0.1 45.3
*01/15/19 05 25.0 28 4 5 N - 344 0.0 45.3
*01/15/19 04 25.6 27 4 6 N - 353 0.0 45.5
*01/15/19 03 26.6 27 3 5 NW - 312 0.1 45.6
*01/15/19 02 27.0 19 4 8 N - 339 0.1 45.5
*01/15/19 01 24.7 24 3 5 N - 21 0.3 45.5
*01/15/19 00 26.3 13 2 8 N - 343 0.0 45.6
.